createdAt,value
2019-06-10T00:01:08.604Z,11.53
2019-06-10T00:03:38.134Z,21.40
2019-06-10T00:06:07.794Z,13.27
2019-06-10T00:08:37.457Z,10.10
2019-06-10T00:11:07.854Z,12.63
2019-06-10T00:13:37.565Z,14.60
2019-06-10T00:16:08.028Z,12.60
2019-06-10T00:18:42.104Z,14.30
2019-06-10T00:21:11.209Z,6.57
2019-06-10T00:23:41.391Z,11.10
2019-06-10T00:26:12.463Z,14.03
2019-06-10T00:28:43.362Z,20.87
2019-06-10T00:31:13.403Z,12.10
2019-06-10T00:33:43.060Z,13.60
2019-06-10T00:36:13.533Z,13.10
2019-06-10T00:38:43.863Z,10.87
2019-06-10T00:41:14.339Z,6.93
2019-06-10T00:43:45.068Z,8.27
2019-06-10T00:46:14.772Z,16.63
2019-06-10T00:48:44.737Z,9.50
2019-06-10T00:51:14.403Z,14.70
2019-06-10T00:53:44.052Z,8.40
2019-06-10T00:56:14.509Z,17.57
2019-06-10T00:58:44.290Z,10.67
2019-06-10T01:01:14.667Z,11.37
2019-06-10T01:03:44.491Z,12.97
2019-06-10T01:06:15.174Z,20.83
2019-06-10T01:08:44.975Z,24.23
2019-06-10T01:11:21.293Z,13.60
2019-06-10T01:13:46.966Z,21.03
2019-06-10T01:16:16.953Z,10.70
2019-06-10T01:18:48.493Z,20.73
2019-06-10T01:21:18.347Z,16.97
2019-06-10T01:23:48.075Z,18.90
2019-06-10T01:26:18.334Z,16.70
2019-06-10T01:28:48.041Z,15.37
2019-06-10T01:31:23.334Z,13.50
2019-06-10T01:33:51.189Z,16.30
2019-06-10T01:36:21.083Z,17.03
2019-06-10T01:38:51.412Z,15.77
2019-06-10T01:41:21.628Z,18.47
2019-06-10T01:43:51.514Z,15.20
2019-06-10T01:46:21.374Z,22.13
2019-06-10T01:48:52.214Z,9.23
2019-06-10T01:51:22.449Z,12.57
2019-06-10T01:53:52.172Z,18.43
2019-06-10T01:56:22.141Z,14.23
2019-06-10T01:58:51.802Z,15.90
2019-06-10T02:01:46.307Z,20.23
2019-06-10T02:04:17.488Z,14.17
2019-06-10T02:06:47.338Z,15.93
2019-06-10T02:09:18.453Z,17.57
2019-06-10T02:11:48.654Z,18.00
2019-06-10T02:14:20.383Z,12.57
2019-06-10T02:16:50.662Z,14.83
2019-06-10T02:19:22.823Z,11.93
2019-06-10T02:21:52.225Z,19.30
2019-06-10T02:24:23.453Z,16.03
2019-06-10T02:26:53.234Z,17.27
2019-06-10T02:29:23.630Z,24.40
2019-06-10T02:31:53.454Z,23.57
2019-06-10T02:34:27.260Z,22.17
2019-06-10T02:36:55.466Z,15.83
2019-06-10T02:39:33.447Z,13.43
2019-06-10T02:42:04.415Z,16.63
2019-06-10T02:44:37.528Z,11.70
2019-06-10T02:47:04.723Z,21.23
2019-06-10T02:49:51.531Z,14.43
2019-06-10T02:52:19.943Z,24.13
2019-06-10T02:54:49.328Z,23.33
2019-06-10T02:57:24.635Z,16.50
2019-06-10T02:59:54.076Z,18.23
2019-06-10T03:02:23.736Z,15.57
2019-06-10T03:04:54.171Z,20.97
2019-06-10T03:07:28.355Z,29.97
2019-06-10T03:09:55.302Z,17.53
2019-06-10T03:12:25.910Z,19.80
2019-06-10T03:14:56.699Z,17.90
2019-06-10T03:17:28.154Z,13.50
2019-06-10T03:19:59.276Z,17.27
2019-06-10T03:22:28.945Z,17.17
2019-06-10T03:24:58.850Z,23.07
2019-06-10T03:27:28.536Z,21.77
2019-06-10T03:29:58.197Z,17.73
2019-06-10T03:32:33.290Z,29.70
2019-06-10T03:34:59.642Z,19.40
2019-06-10T03:37:29.653Z,22.53
2019-06-10T03:39:59.406Z,16.33
2019-06-10T03:42:29.078Z,18.13
2019-06-10T03:44:58.753Z,24.00
2019-06-10T03:47:28.846Z,19.67
2019-06-10T03:49:59.663Z,21.67
2019-06-10T03:52:29.352Z,21.10
2019-06-10T03:54:59.361Z,18.30
2019-06-10T03:57:29.030Z,15.17
2019-06-10T03:59:58.930Z,21.63
2019-06-10T04:02:28.637Z,23.77
2019-06-10T04:04:58.289Z,18.73
2019-06-10T04:07:30.984Z,31.17
2019-06-10T04:09:59.367Z,24.33
2019-06-10T04:12:29.394Z,28.27
2019-06-10T04:14:59.068Z,19.17
2019-06-10T04:17:28.893Z,21.03
2019-06-10T04:20:09.371Z,19.27
2019-06-10T04:22:29.904Z,26.10
2019-06-10T04:25:03.030Z,14.00
2019-06-10T04:27:32.911Z,11.83
2019-06-10T04:30:03.373Z,14.57
2019-06-10T04:32:33.255Z,16.17
2019-06-10T04:35:02.920Z,15.10
2019-06-10T04:37:32.661Z,18.80
2019-06-10T04:40:03.010Z,17.73
2019-06-10T04:42:33.084Z,12.63
2019-06-10T04:45:03.265Z,14.27
2019-06-10T04:47:33.402Z,20.97
2019-06-10T04:50:03.388Z,14.67
2019-06-10T04:52:33.164Z,17.13
2019-06-10T04:55:03.018Z,12.17
2019-06-10T04:57:33.000Z,21.43
2019-06-10T05:00:11.004Z,19.40
2019-06-10T05:02:35.471Z,18.97
2019-06-10T05:05:06.851Z,16.30
2019-06-10T05:07:37.263Z,15.40
2019-06-10T05:10:07.903Z,15.83
2019-06-10T05:12:37.567Z,11.13
2019-06-10T05:15:07.520Z,13.33
2019-06-10T05:17:37.247Z,11.93
2019-06-10T05:20:07.216Z,14.13
2019-06-10T05:22:37.083Z,13.93
2019-06-10T05:25:08.376Z,12.30
2019-06-10T05:27:38.040Z,10.90
2019-06-10T05:30:08.771Z,10.73
2019-06-10T05:32:38.819Z,13.83
2019-06-10T05:35:08.554Z,9.60
2019-06-10T05:37:38.206Z,9.30
2019-06-10T05:40:08.478Z,16.40
2019-06-10T05:42:38.148Z,10.90
2019-06-10T05:45:08.556Z,10.70
2019-06-10T05:47:38.489Z,11.37
2019-06-10T05:50:08.842Z,15.40
2019-06-10T05:52:38.818Z,14.83
2019-06-10T05:55:08.780Z,9.50
2019-06-10T05:57:38.462Z,11.47
2019-06-10T06:00:14.017Z,13.40
2019-06-10T06:02:43.110Z,9.90
2019-06-10T06:05:13.005Z,13.90
2019-06-10T06:07:42.993Z,8.10
2019-06-10T06:10:14.220Z,9.07
2019-06-10T06:12:43.958Z,9.20
2019-06-10T06:15:14.294Z,9.50
2019-06-10T06:17:44.616Z,12.77
2019-06-10T06:20:14.934Z,8.93
2019-06-10T06:22:44.601Z,11.13
2019-06-10T06:25:15.653Z,8.57
2019-06-10T06:27:45.440Z,12.60
2019-06-10T06:30:18.736Z,10.00
2019-06-10T06:32:47.439Z,14.20
2019-06-10T06:35:17.586Z,13.53
2019-06-10T06:37:48.327Z,9.33
2019-06-10T06:40:23.086Z,12.27
2019-06-10T06:42:52.859Z,11.10
2019-06-10T06:45:22.605Z,12.00
2019-06-10T06:47:52.847Z,10.03
2019-06-10T06:50:25.564Z,11.67
2019-06-10T06:53:20.032Z,9.67
2019-06-10T06:55:25.735Z,10.13
2019-06-10T06:57:55.461Z,13.70
2019-06-10T07:00:49.556Z,8.73
2019-06-10T07:03:05.570Z,10.67
2019-06-10T07:05:37.558Z,11.50
2019-06-10T07:08:12.930Z,8.07
2019-06-10T07:10:44.011Z,9.00
2019-06-10T07:13:17.363Z,13.03
2019-06-10T07:15:47.859Z,8.80
2019-06-10T07:18:17.706Z,10.40
2019-06-10T07:20:48.374Z,10.10
2019-06-10T07:23:22.680Z,9.07
2019-06-10T07:25:53.315Z,8.57
2019-06-10T07:28:27.909Z,9.07
2019-06-10T07:30:57.911Z,8.87
2019-06-10T07:33:29.972Z,8.30
2019-06-10T07:36:03.244Z,12.30
2019-06-10T07:38:37.494Z,7.70
2019-06-10T07:41:07.426Z,10.07
2019-06-10T07:43:42.438Z,9.47
2019-06-10T07:46:13.044Z,10.33
2019-06-10T07:48:47.829Z,8.60
2019-06-10T07:51:16.418Z,11.63
2019-06-10T07:53:46.851Z,9.60
2019-06-10T07:56:18.293Z,9.13
2019-06-10T07:58:52.558Z,9.67
2019-06-10T08:01:23.017Z,7.10
2019-06-10T08:03:53.461Z,8.33
2019-06-10T08:06:25.531Z,10.50
2019-06-10T08:08:57.441Z,7.93
2019-06-10T08:11:27.183Z,9.27
2019-06-10T08:13:58.360Z,10.70
2019-06-10T08:16:29.440Z,9.87
2019-06-10T08:19:22.072Z,8.97
2019-06-10T08:21:32.311Z,9.03
2019-06-10T08:24:03.486Z,9.03
2019-06-10T08:26:35.348Z,6.90
2019-06-10T08:29:05.567Z,8.47
2019-06-10T08:31:36.669Z,7.23
2019-06-10T08:34:06.978Z,10.10
2019-06-10T08:36:39.371Z,7.07
2019-06-10T08:39:15.156Z,7.80
2019-06-10T08:41:45.567Z,8.10
2019-06-10T08:44:12.994Z,10.80
2019-06-10T08:46:45.582Z,8.03
2019-06-10T08:49:15.108Z,9.60
2019-06-10T08:51:48.311Z,11.40
2019-06-10T08:54:16.487Z,7.97
2019-06-10T08:56:50.316Z,9.17
2019-06-10T08:59:17.622Z,10.40
2019-06-10T09:01:51.583Z,10.33
2019-06-10T09:04:18.689Z,7.57
2019-06-10T09:06:50.707Z,9.93
2019-06-10T09:09:22.480Z,7.97
2019-06-10T09:11:54.707Z,8.17
2019-06-10T09:14:23.684Z,11.97
2019-06-10T09:16:54.289Z,9.80
2019-06-10T09:19:24.269Z,8.27
2019-06-10T09:21:56.458Z,8.03
2019-06-10T09:24:25.398Z,10.03
2019-06-10T09:26:55.223Z,10.50
2019-06-10T09:29:25.618Z,10.93
2019-06-10T09:31:56.133Z,8.40
2019-06-10T09:34:25.924Z,10.87
2019-06-10T09:36:56.941Z,10.30
2019-06-10T09:39:27.177Z,9.77
2019-06-10T09:42:02.667Z,10.20
2019-06-10T09:44:28.542Z,9.57
2019-06-10T09:47:03.165Z,11.67
2019-06-10T09:49:33.064Z,14.03
2019-06-10T09:52:03.852Z,11.70
2019-06-10T09:54:33.854Z,10.23
2019-06-10T09:57:03.595Z,11.97
2019-06-10T09:59:33.557Z,12.10
2019-06-10T10:02:07.129Z,10.83
2019-06-10T10:04:37.527Z,8.37
2019-06-10T10:07:07.879Z,11.07
2019-06-10T10:09:38.013Z,9.63
2019-06-10T10:12:07.737Z,9.60
2019-06-10T10:14:37.433Z,9.30
2019-06-10T10:17:07.196Z,8.20
2019-06-10T10:19:37.164Z,12.93
2019-06-10T10:22:06.891Z,12.53
2019-06-10T10:24:36.991Z,10.40
2019-06-10T10:27:09.425Z,9.20
2019-06-10T10:29:38.275Z,7.87
2019-06-10T10:32:08.055Z,9.40
2019-06-10T10:34:37.770Z,9.30
2019-06-10T10:37:07.761Z,9.03
2019-06-10T10:39:37.789Z,10.63
2019-06-10T10:42:07.506Z,10.13
2019-06-10T10:44:37.200Z,8.87
2019-06-10T10:47:06.939Z,8.33
2019-06-10T10:49:36.622Z,9.70
2019-06-10T10:52:06.284Z,12.43
2019-06-10T10:54:36.859Z,9.97
2019-06-10T10:57:06.618Z,9.67
2019-06-10T10:59:36.311Z,11.60
2019-06-10T11:02:06.410Z,7.43
2019-06-10T11:04:38.094Z,10.37
2019-06-10T11:07:07.764Z,8.53
2019-06-10T11:09:37.423Z,7.57
2019-06-10T11:12:07.248Z,9.70
2019-06-10T11:14:37.660Z,8.70
2019-06-10T11:17:07.421Z,10.03
2019-06-10T11:19:37.336Z,5.77
2019-06-10T11:22:07.117Z,10.67
2019-06-10T11:24:41.061Z,6.63
2019-06-10T11:27:08.156Z,8.63
2019-06-10T11:29:37.852Z,6.87
2019-06-10T11:32:07.588Z,7.13
2019-06-10T11:34:37.313Z,4.60
2019-06-10T11:37:06.994Z,6.60
2019-06-10T11:39:38.755Z,7.37
2019-06-10T11:42:08.611Z,9.07
2019-06-10T11:44:38.628Z,7.43
2019-06-10T11:47:08.646Z,7.80
2019-06-10T11:49:38.306Z,9.47
2019-06-10T11:52:08.066Z,11.13
2019-06-10T11:54:51.677Z,7.27
2019-06-10T11:57:12.373Z,6.53
2019-06-10T11:59:43.419Z,10.10
2019-06-10T12:02:13.472Z,9.00
2019-06-10T12:04:43.258Z,5.43
2019-06-10T12:07:13.031Z,7.10
2019-06-10T12:09:42.705Z,5.40
2019-06-10T12:12:13.610Z,8.23
2019-06-10T12:14:43.323Z,6.97
2019-06-10T12:17:25.153Z,6.97
2019-06-10T12:19:44.395Z,9.17
2019-06-10T12:22:14.067Z,7.53
2019-06-10T12:24:43.753Z,7.13
2019-06-10T12:27:13.706Z,7.93
2019-06-10T12:29:43.352Z,8.50
2019-06-10T12:32:13.576Z,5.50
2019-06-10T12:34:46.192Z,7.37
2019-06-10T12:37:16.153Z,8.97
2019-06-10T12:39:45.860Z,6.80
2019-06-10T12:42:15.849Z,6.50
2019-06-10T12:44:45.574Z,6.97
2019-06-10T12:47:15.244Z,6.33
2019-06-10T12:49:44.917Z,4.73
2019-06-10T12:52:14.643Z,8.63
2019-06-10T12:54:44.328Z,8.33
2019-06-10T12:57:16.390Z,5.13
2019-06-10T12:59:45.406Z,6.00
2019-06-10T13:02:23.416Z,8.03
2019-06-10T13:04:47.667Z,11.80
2019-06-10T13:07:18.774Z,9.97
2019-06-10T13:09:48.582Z,7.03
2019-06-10T13:12:19.271Z,6.43
2019-06-10T13:14:48.931Z,6.60
2019-06-10T13:17:18.606Z,5.63
2019-06-10T13:19:48.265Z,8.13
2019-06-10T13:22:18.008Z,7.93
2019-06-10T13:24:47.991Z,9.07
2019-06-10T13:27:17.743Z,9.33
2019-06-10T13:29:47.482Z,6.77
2019-06-10T13:32:17.163Z,9.87
2019-06-10T13:34:46.853Z,7.27
2019-06-10T13:37:16.655Z,9.37
2019-06-10T13:39:46.642Z,15.63
2019-06-10T13:42:17.288Z,8.57
2019-06-10T13:44:47.932Z,11.67
2019-06-10T13:47:17.959Z,7.80
2019-06-10T13:49:49.078Z,12.30
2019-06-10T13:52:19.081Z,7.83
2019-06-10T13:54:48.748Z,7.33
2019-06-10T13:57:18.530Z,9.07
2019-06-10T13:59:48.508Z,7.93
2019-06-10T14:02:18.249Z,14.90
2019-06-10T14:04:47.936Z,9.00
2019-06-10T14:07:17.761Z,7.97
2019-06-10T14:09:47.539Z,7.63
2019-06-10T14:12:17.895Z,8.60
2019-06-10T14:14:48.537Z,8.73
2019-06-10T14:17:19.636Z,6.77
2019-06-10T14:19:50.201Z,10.87
2019-06-10T14:22:22.634Z,8.67
2019-06-10T14:24:53.029Z,11.23
2019-06-10T14:27:24.776Z,8.07
2019-06-10T14:29:54.715Z,11.07
2019-06-10T14:32:25.201Z,25.40
2019-06-10T14:34:55.181Z,10.43
2019-06-10T14:37:38.149Z,9.50
2019-06-10T14:39:56.346Z,8.43
2019-06-10T14:42:26.111Z,11.03
2019-06-10T14:44:55.883Z,9.77
2019-06-10T14:47:25.673Z,9.23
2019-06-10T14:49:56.111Z,8.80
2019-06-10T14:52:26.137Z,11.00
2019-06-10T14:54:57.579Z,6.93
2019-06-10T14:57:27.219Z,9.13
2019-06-10T14:59:56.922Z,12.90
2019-06-10T15:02:26.605Z,9.37
2019-06-10T15:04:56.557Z,7.77
2019-06-10T15:07:26.309Z,8.53
2019-06-10T15:09:55.970Z,7.83
2019-06-10T15:12:25.966Z,9.07
2019-06-10T15:14:55.686Z,7.93
2019-06-10T15:17:25.362Z,8.77
2019-06-10T15:19:55.086Z,8.83
2019-06-10T15:22:24.842Z,8.00
2019-06-10T15:24:54.609Z,11.53
2019-06-10T15:27:30.439Z,8.80
2019-06-10T15:29:55.983Z,10.37
2019-06-10T15:32:33.715Z,9.97
2019-06-10T15:34:57.154Z,11.53
2019-06-10T15:37:28.961Z,10.33
2019-06-10T15:39:58.623Z,12.03
2019-06-10T15:42:28.385Z,9.33
2019-06-10T15:44:59.295Z,13.87
2019-06-10T15:47:29.077Z,8.10
2019-06-10T15:49:59.063Z,13.90
2019-06-10T15:52:29.080Z,10.00
2019-06-10T15:54:58.828Z,10.47
2019-06-10T15:57:39.229Z,9.70
2019-06-10T16:00:02.782Z,9.93
2019-06-10T16:02:33.550Z,9.43
2019-06-10T16:05:05.290Z,13.03
2019-06-10T16:07:35.025Z,10.70
2019-06-10T16:10:05.664Z,11.93
2019-06-10T16:12:35.760Z,9.43
2019-06-10T16:15:06.065Z,9.33
2019-06-10T16:17:35.739Z,16.30
2019-06-10T16:20:06.331Z,10.80
2019-06-10T16:22:36.534Z,9.80
2019-06-10T16:25:06.567Z,10.83
2019-06-10T16:27:47.419Z,7.60
2019-06-10T16:30:08.069Z,9.50
2019-06-10T16:32:38.243Z,8.87
2019-06-10T16:35:08.529Z,6.77
2019-06-10T16:37:38.443Z,8.57
2019-06-10T16:40:08.868Z,8.10
2019-06-10T16:42:38.531Z,6.83
2019-06-10T16:45:09.049Z,10.97
2019-06-10T16:47:38.783Z,12.83
2019-06-10T16:50:08.825Z,10.63
2019-06-10T16:52:38.676Z,12.43
2019-06-10T16:55:08.793Z,9.93
2019-06-10T16:57:40.312Z,12.10
2019-06-10T17:00:14.440Z,10.97
2019-06-10T17:02:43.043Z,9.13
2019-06-10T17:05:13.565Z,9.40
2019-06-10T17:07:43.591Z,8.87
2019-06-10T17:10:15.708Z,9.50
2019-06-10T17:12:47.557Z,9.20
2019-06-10T17:15:17.613Z,6.30
2019-06-10T17:17:47.538Z,7.40
2019-06-10T17:20:18.581Z,10.90
2019-06-10T17:22:48.593Z,8.70
2019-06-10T17:25:19.098Z,8.57
2019-06-10T17:27:48.879Z,10.10
2019-06-10T17:30:19.550Z,7.93
2019-06-10T17:32:49.145Z,9.73
2019-06-10T17:35:20.059Z,9.73
2019-06-10T17:37:52.198Z,7.57
2019-06-10T17:40:23.428Z,7.33
2019-06-10T17:42:53.339Z,10.10
2019-06-10T17:45:26.189Z,11.00
2019-06-10T17:47:54.545Z,12.77
2019-06-10T17:50:26.524Z,8.43
2019-06-10T17:52:56.526Z,8.27
2019-06-10T17:55:27.687Z,7.40
2019-06-10T17:57:57.744Z,10.77
2019-06-10T18:00:28.170Z,10.43
2019-06-10T18:02:58.921Z,7.10
2019-06-10T18:05:29.301Z,9.57
2019-06-10T18:07:59.362Z,12.53
2019-06-10T18:10:29.807Z,8.83
2019-06-10T18:13:13.295Z,9.03
2019-06-10T18:15:36.813Z,11.63
2019-06-10T18:18:09.467Z,10.33
2019-06-10T18:20:39.913Z,8.77
2019-06-10T18:23:14.827Z,13.30
2019-06-10T18:25:46.431Z,7.57
2019-06-10T18:28:17.544Z,10.93
2019-06-10T18:30:49.053Z,8.17
2019-06-10T18:33:19.059Z,6.80
2019-06-10T18:35:49.066Z,6.33
2019-06-10T18:38:19.079Z,6.50
2019-06-10T18:40:49.128Z,8.97
2019-06-10T18:43:19.107Z,8.77
2019-06-10T18:45:49.108Z,11.77
2019-06-10T18:48:19.816Z,13.07
2019-06-10T18:50:53.422Z,8.87
2019-06-10T18:53:25.227Z,7.63
2019-06-10T18:55:57.870Z,10.27
2019-06-10T18:58:29.997Z,11.40
2019-06-10T19:01:07.491Z,9.00
2019-06-10T19:03:38.242Z,8.43
2019-06-10T19:06:08.610Z,8.07
2019-06-10T19:08:39.320Z,9.57
2019-06-10T19:11:09.668Z,7.20
2019-06-10T19:13:41.040Z,9.87
2019-06-10T19:16:12.981Z,11.30
2019-06-10T19:18:43.448Z,13.93
2019-06-10T19:21:13.345Z,9.17
2019-06-10T19:23:44.109Z,11.07
2019-06-10T19:26:14.976Z,13.00
2019-06-10T19:28:45.342Z,10.30
2019-06-10T19:31:16.502Z,11.23
2019-06-10T19:33:46.173Z,11.67
2019-06-10T19:36:15.859Z,11.30
2019-06-10T19:38:45.589Z,13.13
2019-06-10T19:41:15.393Z,10.13
2019-06-10T19:43:46.327Z,11.60
2019-06-10T19:46:16.709Z,12.67
2019-06-10T19:48:56.928Z,13.83
2019-06-10T19:51:17.814Z,13.80
2019-06-10T19:53:49.053Z,11.20
2019-06-10T19:56:18.749Z,10.50
2019-06-10T19:58:48.791Z,10.07
2019-06-10T20:01:18.462Z,11.17
2019-06-10T20:03:48.141Z,10.10
2019-06-10T20:06:17.922Z,13.03
2019-06-10T20:08:47.613Z,15.67
2019-06-10T20:11:17.287Z,10.77
2019-06-10T20:13:47.103Z,18.07
2019-06-10T20:16:17.143Z,26.60
2019-06-10T20:18:48.218Z,19.63
2019-06-10T20:21:18.620Z,9.75
2019-06-10T20:23:48.373Z,19.27
2019-06-10T20:35:13.607Z,14.83
2019-06-10T20:37:44.629Z,12.07
2019-06-10T20:40:14.876Z,15.17
2019-06-10T20:42:44.585Z,13.77
2019-06-10T20:45:14.391Z,20.23
2019-06-10T20:47:47.577Z,13.47
2019-06-10T20:50:16.579Z,13.97
2019-06-10T20:52:47.503Z,16.40
2019-06-10T20:55:17.760Z,11.70
2019-06-10T20:57:59.015Z,12.63
2019-06-10T21:00:34.124Z,13.60
2019-06-10T21:03:04.406Z,10.60
2019-06-10T21:05:34.779Z,15.20
2019-06-10T21:08:05.919Z,15.80
2019-06-10T21:10:36.960Z,12.93
2019-06-10T21:13:07.085Z,11.23
2019-06-10T21:15:37.201Z,15.50
2019-06-10T21:18:07.030Z,12.77
2019-06-10T21:20:36.783Z,9.43
2019-06-10T21:23:06.617Z,13.50
2019-06-10T21:25:36.283Z,15.90
2019-06-10T21:28:05.932Z,13.13
2019-06-10T21:30:41.636Z,10.13
2019-06-10T21:33:06.928Z,9.23
2019-06-10T21:35:37.037Z,9.73
2019-06-10T21:38:06.755Z,15.93
2019-06-10T21:40:36.744Z,10.17
2019-06-10T21:43:08.826Z,12.27
2019-06-10T21:45:38.825Z,9.30
2019-06-10T21:48:08.718Z,7.83
2019-06-10T21:50:38.383Z,10.53
2019-06-10T21:53:08.033Z,8.77
2019-06-10T21:55:37.695Z,14.20
2019-06-10T21:58:07.351Z,11.23
2019-06-10T22:01:00.850Z,10.70
2019-06-10T22:03:23.421Z,8.73
2019-06-10T22:05:53.814Z,9.83
2019-06-10T22:08:23.823Z,8.87
2019-06-10T22:10:56.209Z,12.73
2019-06-10T22:13:24.830Z,7.60
2019-06-10T22:15:56.895Z,8.83
2019-06-10T22:18:26.719Z,6.90
2019-06-10T22:20:57.706Z,8.50
2019-06-10T22:23:27.904Z,12.00
2019-06-10T22:25:57.809Z,9.70
2019-06-10T22:28:27.736Z,11.97
2019-06-10T22:31:15.011Z,9.97
2019-06-10T22:33:29.407Z,13.60
2019-06-10T22:35:59.066Z,10.70
2019-06-10T22:38:28.952Z,13.73
2019-06-10T22:40:59.309Z,10.67
2019-06-10T22:43:29.138Z,11.60
2019-06-10T22:45:59.905Z,9.77
2019-06-10T22:48:29.628Z,13.60
2019-06-10T22:51:00.265Z,16.13
2019-06-10T22:53:29.931Z,15.23
2019-06-10T22:56:03.154Z,13.30
2019-06-10T22:58:33.023Z,13.73
2019-06-10T23:01:04.230Z,17.00
2019-06-10T23:03:34.104Z,17.00
2019-06-10T23:06:03.803Z,12.63
2019-06-10T23:08:34.853Z,8.30
2019-06-10T23:11:04.937Z,12.70
2019-06-10T23:13:34.535Z,14.23
2019-06-10T23:16:04.345Z,16.50
2019-06-10T23:18:34.306Z,20.57
2019-06-10T23:21:04.641Z,6.60
2019-06-10T23:23:34.379Z,15.23
2019-06-10T23:26:04.116Z,11.60
2019-06-10T23:28:33.857Z,10.20
2019-06-10T23:31:05.271Z,11.50
2019-06-10T23:33:34.877Z,10.97
2019-06-10T23:36:04.810Z,14.63
2019-06-10T23:38:35.049Z,15.70
2019-06-10T23:41:04.811Z,15.47
2019-06-10T23:43:34.473Z,11.20
2019-06-10T23:46:05.291Z,11.93
2019-06-10T23:48:35.329Z,15.33
2019-06-10T23:51:06.934Z,12.17
2019-06-10T23:53:36.903Z,13.93
2019-06-10T23:56:06.627Z,9.73
2019-06-10T23:58:37.365Z,11.00
